Derby, Australia
Current Conditions -  °F | °C
As of 11:00 AM on Monday 22 Dec 2014 (Local Time) from YCIN Reporting Station
Clear Clear  
Wind Chill: 90°   Ceiling: Unl
Heat Index: 98°   Visibility: NA
Dew Point: 73°   Wind: 5mph
Humidity: 59%   Direction: 200°SSW
Pressure: 29.74"   Gusts: NA
Location:  17.37°S, 123.67°E
Report Text: YCIN 220300Z AUTO 20004KT 150V210 //// // NCD 32/23 Q1007
Loading
Personal Weather Stations






























Interactive Weather Map New forecast layout! Learn more

10-Day Weather Forecast

Advertisements
Track Severe Weather on mobile